Latest Weather Observations for Busselton Airport

IDW60801

Issued at 5:35 pm WST Friday 28 November 2014 (issued every 30 minutes, with the page automatically refreshed every 10 minutes)

About weather observations | Map of weather stations | Latest weather observations for WA | Other Formats
Station Details ID: 009603 Name: BUSSELTON AERO Lat: -33.69 Lon: 115.40 Height: 16.3 m
Data from the previous 72 hours. | See also: Recent months at Busselton Airport
Date/Time
WST
Temp
°C
App
Temp
°C
Dew
Point
Rel
Hum
%
Delta-T
°C
Wind Press
QNH
hPa
Press
MSL
hPa
Rain
since 9 am
mm
Dir
 
Spd
km/h
Gust
km/h
Spd
kts
Gust
kts
28/05:30pm 20.1 17.0 14.5 70 3.3 SW 24 32 13 17 1012.2 1012.2 0.0
28/05:00pm 20.5 16.1 14.2 67 3.7 SW 30 37 16 20 1011.9 1011.9 0.0
28/04:30pm 22.1 16.9 14.5 62 4.5 SW 35 43 19 23 1011.5 1011.5 0.0
28/04:00pm 23.1 18.6 15.4 62 4.6 SW 33 44 18 24 1010.7 1010.7 0.0
28/03:30pm 23.7 19.3 15.2 59 5.1 WSW 32 41 17 22 1010.6 1010.6 0.0
28/03:00pm 23.6 19.9 14.9 58 5.2 SW 28 35 15 19 1010.3 1010.3 0.0
28/02:30pm 23.9 20.2 14.9 57 5.4 SW 28 35 15 19 1010.3 1010.3 0.0
28/02:00pm 24.2 20.7 14.6 55 5.7 SSW 26 35 14 19 1010.3 1010.3 0.0
28/01:30pm 25.1 20.5 14.6 52 6.3 SSW 32 43 17 23 1010.3 1010.3 0.0
28/01:00pm 24.8 21.1 14.9 54 5.9 SW 28 39 15 21 1010.0 1010.0 0.0
28/12:30pm 24.3 21.7 15.0 56 5.6 SSW 22 32 12 17 1009.8 1009.8 0.0
28/12:00pm 24.6 21.9 15.5 57 5.5 SW 24 32 13 17 1009.9 1009.9 0.0
28/11:30am 24.4 22.7 14.8 55 5.7 WSW 17 24 9 13 1009.9 1009.9 0.0
28/11:00am 24.4 23.5 14.8 55 5.7 SW 13 20 7 11 1009.8 1009.8 0.0
28/10:30am 23.1 21.6 14.1 57 5.3 SW 15 22 8 12 1010.0 1010.0 0.0
28/10:00am 22.9 21.7 15.0 61 4.7 SW 15 20 8 11 1010.0 1010.0 0.0
28/09:30am 22.4 21.3 15.3 64 4.2 WSW 15 22 8 12 1010.0 1010.0 0.0
28/09:00am 21.9 20.7 16.2 70 3.4 SW 17 22 9 12 1010.1 1010.1 2.6
28/08:30am 20.8 19.1 15.8 73 3.0 SW 19 24 10 13 1010.3 1010.3 2.6
28/08:00am 20.3 18.5 16.1 77 2.5 SW 20 28 11 15 1010.4 1010.4 2.6
28/07:30am 20.2 18.6 16.6 80 2.2 SSW 20 28 11 15 1010.5 1010.5 2.6
28/07:00am 18.7 17.3 16.5 87 1.3 SSW 19 24 10 13 1010.4 1010.4 2.6
28/06:30am 18.3 17.5 17.1 93 0.7 SSW 17 22 9 12 1010.4 1010.4 2.6
28/06:00am 18.1 19.2 18.1 100 0.0 SW 9 13 5 7 1010.2 1010.2 2.6
28/05:30am 17.6 18.5 17.6 100 0.0 SSW 9 11 5 6 1010.1 1010.1 2.6
28/05:00am 17.2 18.3 17.2 100 0.0 SW 7 11 4 6 1009.9 1009.9 2.6
28/04:30am 16.7 17.8 16.7 100 0.0 SE 6 7 3 4 1009.6 1009.6 2.6
28/04:00am 16.8 17.8 16.8 100 0.0 S 7 9 4 5 1009.5 1009.5 2.6
28/03:30am 16.9 17.2 16.9 100 0.0 SW 11 13 6 7 1009.5 1009.5 2.6
28/03:00am 16.9 17.5 16.9 100 0.0 SW 9 11 5 6 1009.4 1009.4 2.6
28/02:30am 16.3 17.2 16.1 99 0.1 SSE 6 7 3 4 1009.4 1009.4 2.6
28/02:00am 17.3 19.7 17.0 98 0.2 CALM 0 0 0 0 1009.6 1009.6 2.6
28/01:30am 17.6 20.0 17.1 97 0.3 CALM 0 0 0 0 1009.6 1009.6 2.6
28/01:00am 17.6 18.9 17.1 97 0.3 SE 6 7 3 4 1009.6 1009.6 2.6
28/12:30am 17.9 18.7 17.4 97 0.3 SE 9 11 5 6 1009.4 1009.4 2.6
28/12:00am 17.7 18.0 17.1 96 0.4 S 11 13 6 7 1009.6 1009.6 2.6
 
Date/Time
WST
Temp
°C
App
Temp
°C
Dew
Point
Rel
Hum
%
Delta-T
°C
Wind Press
QNH
hPa
Press
MSL
hPa
Rain
since 9 am
mm
Dir
 
Spd
km/h
Gust
km/h
Spd
kts
Gust
kts
27/11:30pm 17.4 17.2 16.8 96 0.4 S 13 15 7 8 1009.6 1009.6 2.6
27/11:00pm 17.5 17.6 16.4 93 0.7 ESE 11 15 6 8 1010.1 1010.1 2.6
27/10:30pm 18.2 18.1 16.9 92 0.8 SSW 13 17 7 9 1009.9 1009.9 2.6
27/10:00pm 18.1 17.9 16.8 92 0.8 SSW 13 15 7 8 1010.1 1010.1 2.6
27/09:30pm 18.7 17.7 16.7 88 1.2 SSW 17 20 9 11 1010.2 1010.2 2.6
27/09:00pm 19.0 18.1 16.8 87 1.3 SW 17 20 9 11 1010.1 1010.1 2.6
27/08:30pm 19.1 19.8 14.6 75 2.6 WSW 4 9 2 5 1010.1 1010.1 2.6
27/08:00pm 19.7 21.1 14.3 71 3.1 CALM 0 6 0 3 1009.9 1009.9 2.6
27/07:30pm 20.6 20.2 14.0 66 3.8 W 9 13 5 7 1009.6 1009.6 2.6
27/07:00pm 22.5 23.7 13.8 58 5.1 CALM 0 9 0 5 1009.5 1009.5 2.6
27/06:30pm 23.6 23.5 14.0 55 5.6 NNW 7 9 4 5 1009.6 1009.6 2.6
27/06:00pm 24.1 23.5 13.6 52 6.1 NW 9 11 5 6 1009.5 1009.5 2.6
27/05:30pm 24.1 22.9 13.9 53 6.0 NNW 13 19 7 10 1009.6 1009.6 2.6
27/05:00pm 25.1 25.1 14.3 51 6.4 NW 7 9 4 5 1009.8 1009.8 2.6
27/04:30pm 24.9 24.9 14.1 51 6.4 WNW 7 13 4 7 1009.8 1009.8 2.6
27/04:00pm 24.6 24.4 14.7 54 5.9 NW 9 13 5 7 1010.1 1010.1 2.6
27/03:30pm 23.6 24.1 14.9 58 5.2 NW 6 9 3 5 1010.1 1010.1 2.4
27/03:00pm 23.2 24.2 16.3 65 4.2 ESE 6 11 3 6 1010.6 1010.6 2.4
27/02:30pm 21.0 21.6 16.8 77 2.6 E 9 13 5 7 1011.1 1011.1 2.4
27/02:00pm 20.8 21.9 18.0 84 1.7 E 9 13 5 7 1011.5 1011.5 2.4
27/01:30pm 20.5 21.5 17.7 84 1.7 SSE 9 11 5 6 1011.4 1011.4 2.4
27/01:00pm 20.2 21.9 18.0 87 1.4 NNE 6 9 3 5 1011.6 1011.6 2.4
27/12:30pm 19.6 19.7 17.4 87 1.3 NE 13 17 7 9 1011.7 1011.7 2.2
27/12:00pm 19.8 20.3 16.6 82 1.9 N 9 13 5 7 1012.1 1012.1 1.4
27/11:30am 20.7 19.2 16.7 78 2.4 NNE 20 28 11 15 1012.5 1012.5 0.8
27/11:00am 21.1 22.9 17.5 80 2.2 N 4 9 2 5 1012.5 1012.5 0.8
27/10:30am 21.0 22.6 16.8 77 2.6 ESE 4 7 2 4 1012.7 1012.7 0.8
27/10:00am 20.6 21.1 17.4 82 2.0 E 11 15 6 8 1012.5 1012.5 0.8
27/09:30am 22.1 21.4 16.4 70 3.5 ENE 15 20 8 11 1012.3 1012.3 0.0
27/09:00am 21.8 20.8 16.5 72 3.2 ENE 17 20 9 11 1012.1 1012.1 3.8
27/08:30am 22.1 22.7 15.9 68 3.7 SE 7 9 4 5 1011.7 1011.7 3.6
27/08:00am 22.5 22.8 16.1 67 3.9 S 9 13 5 7 1011.6 1011.6 3.6
27/07:30am 22.1 22.3 15.7 67 3.8 SSE 9 15 5 8 1011.6 1011.6 3.6
27/07:00am 21.1 21.2 15.6 71 3.3 SSE 9 15 5 8 1011.8 1011.8 3.6
27/06:30am 19.7 19.9 15.8 78 2.3 SE 9 11 5 6 1011.7 1011.7 3.6
27/06:00am 17.3 17.4 15.5 89 1.1 SE 9 9 5 5 1011.5 1011.5 3.6
27/05:30am 16.3 16.6 15.0 92 0.8 ESE 7 9 4 5 1011.4 1011.4 3.6
27/05:00am 16.5 16.3 14.7 89 1.0 SE 9 11 5 6 1011.2 1011.2 3.6
27/04:30am 17.2 17.6 15.2 88 1.2 E 7 9 4 5 1011.0 1011.0 3.6
27/04:00am 18.1 18.2 15.5 85 1.5 ESE 9 15 5 8 1010.7 1010.7 3.6
27/03:30am 18.9 18.4 15.8 82 1.8 SE 13 15 7 8 1010.7 1010.7 3.6
27/03:00am 18.9 18.0 15.8 82 1.8 SE 15 19 8 10 1010.5 1010.5 3.6
27/02:30am 18.8 17.9 15.9 83 1.7 SE 15 20 8 11 1010.3 1010.3 3.6
27/02:00am 18.7 17.4 15.9 84 1.7 SE 17 24 9 13 1010.4 1010.4 3.6
27/01:30am 18.3 16.9 15.6 84 1.6 SE 17 22 9 12 1010.6 1010.6 3.6
27/01:00am 18.1 17.0 15.4 84 1.6 SE 15 20 8 11 1010.5 1010.5 3.6
27/12:30am 18.6 17.2 15.5 82 1.8 SE 17 22 9 12 1010.5 1010.5 3.6
27/12:00am 18.7 17.2 15.2 80 2.1 SSE 17 22 9 12 1010.5 1010.5 3.6
 
Date/Time
WST
Temp
°C
App
Temp
°C
Dew
Point
Rel
Hum
%
Delta-T
°C
Wind Press
QNH
hPa
Press
MSL
hPa
Rain
since 9 am
mm
Dir
 
Spd
km/h
Gust
km/h
Spd
kts
Gust
kts
26/11:30pm 18.8 16.2 14.9 78 2.3 SSE 22 32 12 17 1010.1 1010.1 3.6
26/11:00pm 18.8 15.5 14.9 78 2.3 SE 26 35 14 19 1010.0 1010.0 3.6
26/10:30pm 18.9 14.4 14.8 77 2.4 SSE 32 44 17 24 1010.6 1010.6 3.6
26/10:00pm 18.2 15.8 15.5 84 1.6 SE 22 32 12 17 1012.1 1012.1 3.6
26/09:30pm 18.6 16.7 15.7 83 1.7 SSE 20 28 11 15 1013.0 1013.0 3.6
26/09:00pm 18.3 16.5 16.1 87 1.3 SSE 20 30 11 16 1013.5 1013.5 3.6
26/08:30pm 18.4 16.8 16.4 88 1.2 SE 20 22 11 12 1014.2 1014.2 3.4
26/08:00pm 19.1 19.5 16.3 84 1.7 S 9 11 5 6 1014.4 1014.4 3.2
26/07:30pm 19.6 18.2 16.6 83 1.8 SSW 19 26 10 14 1014.0 1014.0 3.0
26/07:00pm 19.8 19.4 18.1 90 1.1 SW 17 22 9 12 1013.0 1013.0 2.8
26/06:30pm 20.5 19.4 17.3 82 2.0 SW 19 20 10 11 1012.4 1012.4 2.2
26/06:00pm 21.6 20.7 16.8 74 2.9 SSW 17 19 9 10 1011.1 1011.1 0.6
26/05:30pm 22.6 20.8 15.4 64 4.3 S 19 20 10 11 1010.5 1010.5 0.0
26/05:00pm 25.0 23.3 13.5 48 6.7 ESE 15 24 8 13 1010.6 1010.6 0.0
26/04:30pm 25.4 21.8 14.2 50 6.6 SE 26 32 14 17 1009.3 1009.3 0.0
26/04:00pm 25.5 23.3 14.3 50 6.7 SE 19 24 10 13 1010.9 1010.9 0.0
26/03:30pm 24.5 23.6 14.9 55 5.7 SSE 13 15 7 8 1011.4 1011.4 0.0
26/03:00pm 25.0 23.2 14.5 52 6.3 SW 17 22 9 12 1011.8 1011.8 0.0
26/02:30pm 26.1 25.2 12.5 42 7.9 NW 9 13 5 7 1012.5 1012.5 0.0
26/02:00pm 27.3 25.2 11.3 37 9.1 SE 13 17 7 9 1011.7 1011.7 0.0
26/01:30pm 26.9 23.5 11.4 38 8.8 SE 20 24 11 13 1011.2 1011.2 0.0
26/01:00pm 27.0 24.6 11.5 38 8.9 E 15 22 8 12 1011.8 1011.8 0.0
26/12:30pm 26.8 23.3 10.9 37 9.0 E 20 28 11 15 1012.3 1012.3 0.0
26/12:00pm 26.5 23.1 10.6 37 8.9 E 19 26 10 14 1012.3 1012.3 0.0
26/11:30am 25.1 22.1 10.6 40 8.1 ESE 17 24 9 13 1012.6 1012.6 0.0
26/11:00am 24.9 20.5 10.4 40 8.1 E 24 32 13 17 1012.9 1012.9 0.0
26/10:30am 24.2 19.3 10.1 41 7.8 ENE 26 35 14 19 1013.5 1013.5 0.0
26/10:00am 23.7 18.4 10.0 42 7.5 E 28 33 15 18 1013.3 1013.3 0.0
26/09:30am 24.0 19.1 9.9 41 7.7 E 26 33 14 18 1013.5 1013.5 0.0
26/09:00am 23.9 19.8 10.2 42 7.5 E 22 32 12 17 1014.1 1014.1 0.0
26/08:30am 21.9 16.6 9.8 46 6.5 E 28 35 15 19 1014.3 1014.3 0.0
26/08:00am 21.2 17.6 10.4 50 5.9 E 20 30 11 16 1014.4 1014.4 0.0
26/07:30am 19.7 16.0 10.1 54 5.2 E 20 28 11 15 1014.7 1014.7 0.0
26/07:00am 19.1 13.8 9.9 55 4.9 E 28 37 15 20 1014.5 1014.5 0.0
26/06:30am 18.5 13.1 9.6 56 4.7 E 28 37 15 20 1014.6 1014.6 0.0
26/06:00am 17.3 12.7 9.7 61 4.0 E 24 33 13 18 1014.9 1014.9 0.0
26/05:30am 16.7 12.1 9.6 63 3.7 E 24 35 13 19 1015.0 1015.0 0.0
26/05:00am 15.9 11.7 9.6 66 3.3 E 22 32 12 17 1015.1 1015.1 0.0
26/04:30am 15.4 10.8 9.5 68 3.1 E 24 33 13 18 1014.9 1014.9 0.0
26/04:00am 15.7 10.7 9.4 66 3.3 E 26 35 14 19 1014.6 1014.6 0.0
26/03:30am 15.9 10.4 9.1 64 3.5 E 28 41 15 22 1014.4 1014.4 0.0
26/03:00am 16.1 10.9 8.8 62 3.7 E 26 33 14 18 1014.6 1014.6 0.0
26/02:30am 16.5 11.0 9.0 61 3.9 E 28 37 15 20 1014.5 1014.5 0.0
26/02:00am 16.8 11.2 8.8 59 4.1 E 28 37 15 20 1014.5 1014.5 0.0
26/01:30am 17.4 11.2 8.0 54 4.8 E 30 39 16 21 1014.9 1014.9 0.0
26/01:00am 17.8 12.0 8.1 53 4.9 E 28 37 15 20 1015.1 1015.1 0.0
26/12:30am 18.3 13.5 8.8 54 4.9 E 24 35 13 19 1015.4 1015.4 0.0
26/12:00am 18.6 13.9 9.1 54 5.0 E 24 30 13 16 1015.5 1015.5 0.0
 
Date/Time
WST
Temp
°C
App
Temp
°C
Dew
Point
Rel
Hum
%
Delta-T
°C
Wind Press
QNH
hPa
Press
MSL
hPa
Rain
since 9 am
mm
Dir
 
Spd
km/h
Gust
km/h
Spd
kts
Gust
kts
25/11:30pm 18.7 14.9 9.2 54 5.0 ESE 19 30 10 16 1015.8 1015.8 0.0
25/11:00pm 19.4 15.6 9.9 54 5.1 ESE 20 28 11 15 1015.9 1015.9 0.0
25/10:30pm 20.4 16.8 10.5 53 5.4 ESE 20 30 11 16 1015.9 1015.9 0.0
25/10:00pm 20.6 16.8 11.0 54 5.3 ESE 22 30 12 16 1016.2 1016.2 0.0
25/09:30pm 20.5 16.9 12.0 58 4.7 SE 22 32 12 17 1016.3 1016.3 0.0
25/09:00pm 20.9 17.2 12.6 59 4.7 SSE 24 33 13 18 1016.1 1016.1 0.0
25/08:30pm 20.9 16.8 12.8 60 4.6 S 26 33 14 18 1015.9 1015.9 0.0
25/08:00pm 21.4 17.7 12.8 58 4.9 S 24 32 13 17 1015.8 1015.8 0.0
25/07:30pm 21.7 17.7 13.1 58 4.9 S 26 35 14 19 1015.8 1015.8 0.0
25/07:00pm 22.3 18.6 12.8 55 5.4 S 24 33 13 18 1015.8 1015.8 0.0
25/06:30pm 23.6 19.5 12.6 50 6.3 S 26 39 14 21 1015.9 1015.9 0.0
25/06:00pm 24.8 19.8 12.1 45 7.2 S 30 35 16 19 1015.9 1015.9 0.0

Other Formats:

Comma delimited format used in spreadsheet applications
http://www.bom.gov.au/fwo/IDW60801/IDW60801.95611.axf

JavaScript Object Notation format (JSON) in row-major order
http://www.bom.gov.au/fwo/IDW60801/IDW60801.95611.json